Pagrindinis puslapis
METAR-TAF:

METAR-TAF

Oro uostai :

Miunsteris-Osnabriukas, Vokietija

platuma: 52-08N, ilguma: 007-42E, Aukštis: 48 m

Dabartinis oras

Ataskaita buvo paskelbta 17 minutes, ne 17:20 UTC
Vėjas 4 kt iš Šiaurės/Šiaurės Rytų
Temperatūra 7°C
Drėgmė 39%
Slėgis 1028 hPa
Matomumas 10 km arba daugiau
nėra debesų žemiau 1500 m ir nėra kamuolinių lietaus debesų

METAR: EDDG 311720Z 03004KT CAVOK 07/M06 Q1028 NOSIG

Laikas: 19:37 (17:37 UTC)

Prognozė

Ataskaita buvo paskelbta 37 minutes, ne 17:00 UTC
Prognozė galioja nuo 31 metu 18 UTC su 01 metu 18 UTC
Vėjas 6 kt iš Šiaurės/Šiaurės Rytų
Matomumas 10 km arba daugiau
nėra debesų žemiau 1500 m ir nėra kamuolinių lietaus debesų
Tapsmas
nuo 31 metu 18 UTC su 31 metu 20 UTC
Vėjas 3 kt nuo kintamojo kryptimis
Tapsmas
nuo 01 metu 08 UTC su 01 metu 11 UTC
Vėjas 6 kt iš Vakarų

TAF: EDDG 311700Z 3118/0118 02006KT CAVOK BECMG 3118/3120 VRB03KT BECMG 0108/0111 28006KT

Orai ataskaitas ir orų prognozės (METAR, TAF).

turimą stotys yra geltonos ir raudonos taškus žemėlapyje.

Perkelti pele per norėdami pamatyti stoties vardą.

Tada spustelėkite, norėdami matyti oro stebėjimo ir prognozės.

Norėdami pakeisti žemėlapį: spustelėkite ant žalios mygtukų su juodo kryžiaus žemyn,; žalią mygtuką su brūkšneliu, jei norite nutolinti; arba žalių rodyklių gretimoms žemėlapius.


METAR-TAF: